Boulevard, CA (91905)

6:52 AM PDT on August 29, 2015 (GMT -0700)
Tierra Del Sol | | Change Station
CLOSE
Current Station
Personal Weather Station
Location: Boulevard, CA
Elevation: 3710 ft
Nearby Weather Stations

Elev 3710 ft 32.61 °N, 116.33 °W | Updated 2 minutes ago

Clear
Clear
69.0 °F
Feels Like 69.0 °F
N
0.0
Wind Variable Wind from West
Gusts 1.0 mph

Today
High -- | Low -- °F
--% Chance of Precip.
Yesterday
High -- | Low -- °F
Precip. -- in
6:17 AM 7:13 PM
Full, 100% visible
Pressure 29.85 in
Visibility -9999.0 miles
Clouds
Dew Point 46 °F
Humidity 43%
Rainfall 0.00 in
Snow Depth Not available.
UV Not available.
Pollen 5.50 out of 12
Air Quality Not available.
Flu Activity Not available.
METAR KCZZ 291252Z AUTO 04005KT 17/08 A2995 RMK AO1 SLP106 T01670083
Pressure 29.85 in
Visibility -9999.0 miles
Clouds
Dew Point 46 °F
Humidity 43%
Rainfall 0.00 in
Snow Depth Not available.
UV Not available.
Pollen 5.50 out of 12
Air Quality Not available.
Flu Activity Not available.
METAR KCZZ 291252Z AUTO 04005KT 17/08 A2995 RMK AO1 SLP106 T01670083

10-Day Weather Forecast

×

Almanac

Astronomy

Aug. 29, 2015 Rise Set
Actual Time
Civil Twilight
Nautical Twilight
Astronomical Twilight
Moon
Length of Visible Light
Length of Day
Tomorrow will be .
, % of the Moon is Illuminated

Today's Extremes

State Highs State Lows

Community

WunderPhotos

Upload Photos

1,850,686 photos uploaded!

WunderBlogs® & News

Nearby

Air Quality

  Air Quality AQ Index Pollutant
Not available.

Snow Depth

Station Depth Elevation

Earthquake Activity

City Distance Mag. Time & Date
Minimum magnitude displayed is 2.5.

Coastal Water Temperatures

Place Temperature

Stations

Nearby Weather Stations

Station Location Temp. Windchill Dew Point Humidity Wind Precip. Elev Updated Type